Skip Navigation Links
NOAA logo - Click to go to the NOAA homepage
NOAA's National Weather Service
Alaska Aviation Weather Unit
  NWS logo - Click to go to the NWS homepage
Left Navbar Graphic     17 AKDT = 01 GMT

   
NOAA is celebrating 200 years of science, service, and stewardship. Visit the NOAA 200th celebration Web site to learn more.
USA.gov is the U.S. Government's official Web portal to all Federal, state and local government Web resources and services.
Facebook
NWS on Facebook

Important Change Regarding the AAWU Web Presence

 

Over the last several months, the AAWU has been working to navigate its webpages to a nationally supported server. Security, as well as other needs, have necessitated the change.  In the process, we have made an effort to enhance the functionality of our website, as well as some of our products. As of June 27, 2017, aawu.arh.noaa.gov will be discontinued. The new AAWU web address is weather.gov/aawu. It is now live and will run in-parallel with the old site until it is discontinued. Please send any feedback or questions regarding the new webpages to nws.ar.aawu.webauthors@noaa.gov.  Thank you for your patience during this time of transition.
AAWU Home :: Display TAF Add Bookmark
METAR PAEH 251955Z AUTO 17016G23KT 10SM OVC025 10/05 A2992=

PAEH 252050Z AUTO 15017G26KT 120V190 10SM FEW020 BKN038 BKN130
10/05 A2991=

METAR PAEH 252055Z AUTO 17018G23KT 130V190 10SM FEW020 SCT038 BKN130
     10/05 A2990=

METAR PAEH 252155Z AUTO 15015G22KT 10SM FEW070 SCT090 10/05 A2989=

METAR PAEH 252255Z AUTO 14015KT 10SM -SHRA BKN019 10/06 A2987=

PAEH 252310Z AUTO 16015G23KT 10SM BKN016 10/06 A2986=

PAEH 252350Z AUTO 14018G25KT 10SM FEW015 SCT028 BKN055 10/06 A2985=

METAR PAEH 252355Z AUTO 13013G25KT 10SM -SHRA FEW015 BKN032 BKN055 09/06
     A2986=

PAEH 260050Z AUTO 13021G25KT 110V170 10SM -SHRA BKN011 BKN048
09/06 A2982=

METAR PAEH 260055Z AUTO 13018G25KT 100V160 10SM -SHRA BKN011 BKN048
     09/06 A2982=


NOAA's National Weather Service
Alaska Aviation Weather Unit
6930 Sand Lake Road
Anchorage, AK 99502-1845
Disclaimer
Credits
Glossary
Privacy Policy
About Us
Career Opportunities
Contact AAWU Internet Services Site last modified: April, 17th 2012